Flugplatz Husum-Schwesing

Für EDXJ sind keine METAR/TAF Berichte vorhanden.
Es werden die Flugwettermeldungen vom Flugplatz Schleswig Airport in 25 km Entfernung angezeigt.

Bericht für ETNS

vom 30.09. um 23:20 UTC

Wind 11 kt aus 170°

Sichtweite 9000 m

Temperatur 11.0°C

Taupunkt 7.0°C

Luftfeuchtigkeit 76%

Luftdruck 1004 hPa

ETNS 302320Z AUTO 17011KT 9000 // ////// 11/07 Q1004 ///
Keine Prognose (TAF) verfügbar.
Impressum